Time;durP1;ratioP1;P1;durP2;ratioP2;P2;SDS_P1;SDS_P2;PMS_P1;PMS_P2;Temp;Humidity;BMP_temperature;BMP_pressure;BME280_temperature;BME280_humidity;BME280_pressure;Samples;Min_cycle;Max_cycle;Signal;HPM_P1;HPM_P2
2022/08/27 00:01:43;;;;;;;8.18;2.85;;;;;;;18.89;69.91;101607.19;5032970;28;20383;-49
2022/08/27 00:04:11;;;;;;;8.63;2.60;;;;;;;18.92;69.79;101605.75;5016500;28;20042;-48
2022/08/27 00:06:39;;;;;;;7.90;2.53;;;;;;;18.94;70.02;101603.53;5034021;28;20057;-49
2022/08/27 00:09:08;;;;;;;8.57;2.80;;;;;;;18.96;69.70;101601.28;5030159;28;20052;-48
2022/08/27 00:11:35;;;;;;;9.52;2.65;;;;;;;18.99;69.72;101599.84;5034764;28;20447;-49
2022/08/27 00:14:04;;;;;;;5.88;2.60;;;;;;;18.99;69.53;101595.13;5016030;28;20504;-48
2022/08/27 00:16:31;;;;;;;7.13;2.75;;;;;;;18.95;69.69;101596.88;5033819;28;20042;-50
2022/08/27 00:18:59;;;;;;;7.43;2.40;;;;;;;18.90;70.04;101592.25;5031839;28;20045;-49
2022/08/27 00:21:27;;;;;;;6.40;2.40;;;;;;;18.82;70.35;101590.22;5034942;28;20045;-47
2022/08/27 00:23:54;;;;;;;6.97;2.60;;;;;;;18.77;70.61;101589.50;5033387;28;20451;-49
2022/08/27 00:26:22;;;;;;;7.55;2.55;;;;;;;18.70;70.95;101585.16;5033247;28;20045;-52
2022/08/27 00:28:50;;;;;;;10.23;3.17;;;;;;;18.70;71.10;101581.56;5032625;28;20083;-49
2022/08/27 00:31:18;;;;;;;6.85;2.33;;;;;;;18.65;71.14;101587.19;5018171;28;20163;-54
2022/08/27 00:33:52;;;;;;;8.27;2.88;;;;;;;18.57;71.39;101582.34;5036731;28;20037;-49
2022/08/27 00:36:19;;;;;;;8.65;2.80;;;;;;;18.44;72.04;101586.72;5041751;28;20037;-51
2022/08/27 00:38:48;;;;;;;8.95;2.65;;;;;;;18.44;72.32;101584.78;5033288;28;20041;-51
2022/08/27 00:41:21;;;;;;;5.25;2.50;;;;;;;18.45;72.35;101580.91;5036161;28;20041;-49
2022/08/27 00:43:52;;;;;;;7.20;2.50;;;;;;;18.49;72.39;101576.41;5029449;28;20041;-49
2022/08/27 00:46:28;;;;;;;7.88;3.00;;;;;;;18.49;72.04;101586.63;5040076;28;20052;-52
2022/08/27 00:49:05;;;;;;;5.97;2.47;;;;;;;18.49;72.21;101579.16;5038981;28;20116;-50
2022/08/27 00:51:35;;;;;;;9.02;2.80;;;;;;;18.49;72.45;101590.22;5016911;28;20052;-51
2022/08/27 00:54:03;;;;;;;8.38;2.67;;;;;;;18.53;72.29;101588.50;5037661;28;20048;-51
2022/08/27 00:56:34;;;;;;;6.40;2.53;;;;;;;18.60;72.15;101588.09;5033073;28;20041;-51
2022/08/27 00:59:02;;;;;;;9.27;2.95;;;;;;;18.59;71.96;101588.41;5015721;28;20504;-50
2022/08/27 01:01:33;;;;;;;8.25;2.97;;;;;;;18.56;72.10;101589.00;5001773;28;20045;-51
2022/08/27 01:04:04;;;;;;;7.43;2.92;;;;;;;18.53;72.45;101593.19;5015156;28;20557;-51
2022/08/27 01:06:35;;;;;;;8.25;2.95;;;;;;;18.55;72.32;101588.19;5015214;28;20080;-50
2022/08/27 01:09:11;;;;;;;8.10;2.70;;;;;;;18.56;72.54;101592.59;5032604;28;20045;-52
2022/08/27 01:11:39;;;;;;;12.70;2.80;;;;;;;18.52;72.61;101586.06;5015123;28;20124;-51
2022/08/27 01:14:07;;;;;;;8.18;3.03;;;;;;;18.50;72.69;101589.09;5025527;28;20049;-54
2022/08/27 01:16:40;;;;;;;9.50;3.13;;;;;;;18.51;72.70;101578.88;5015274;28;20443;-48
2022/08/27 01:19:17;;;;;;;6.68;2.55;;;;;;;18.51;72.75;101587.97;5031995;28;20399;-48
2022/08/27 01:21:52;;;;;;;6.68;2.72;;;;;;;18.53;72.88;101587.69;5015556;28;20497;-52
2022/08/27 01:24:36;;;;;;;8.55;3.10;;;;;;;18.52;72.96;101591.56;5018197;28;20064;-50
2022/08/27 01:27:07;;;;;;;9.70;3.00;;;;;;;18.52;72.90;101591.56;5021975;28;20041;-50
2022/08/27 01:29:41;;;;;;;;;;;;;;;18.52;73.15;101588.81;5022156;28;20041;-50
2022/08/27 01:32:13;;;;;;;5.93;2.40;;;;;;;18.53;73.07;101588.50;5022795;28;19921;-51
2022/08/27 01:34:41;;;;;;;9.43;2.95;;;;;;;18.55;73.14;101576.34;5039308;28;20053;-51
2022/08/27 01:37:11;;;;;;;7.90;2.72;;;;;;;18.56;72.92;101583.50;4999306;28;20041;-53
2022/08/27 01:39:40;;;;;;;8.10;2.72;;;;;;;18.48;73.03;101583.06;5007815;28;20038;-52
2022/08/27 01:42:14;;;;;;;9.90;3.00;;;;;;;18.43;73.43;101582.34;5039249;28;20094;-53
2022/08/27 01:44:47;;;;;;;5.28;2.40;;;;;;;18.42;73.60;101580.69;5003130;28;20045;-52
2022/08/27 01:47:17;;;;;;;7.03;3.03;;;;;;;18.41;73.67;101587.34;5042435;28;20057;-48
2022/08/27 01:49:45;;;;;;;6.90;2.60;;;;;;;18.45;73.81;101582.88;5021274;28;20041;-52
2022/08/27 01:52:13;;;;;;;8.40;2.95;;;;;;;18.44;73.64;101575.69;5039401;28;20046;-50
2022/08/27 01:54:41;;;;;;;7.43;2.83;;;;;;;18.38;73.83;101586.00;5021198;28;20049;-51
2022/08/27 01:57:09;;;;;;;7.80;2.88;;;;;;;18.33;74.30;101579.75;5039012;28;20037;-51
2022/08/27 01:59:37;;;;;;;7.10;2.65;;;;;;;18.26;74.47;101583.72;5038907;28;20045;-54
2022/08/27 02:02:07;;;;;;;8.52;3.13;;;;;;;18.28;74.65;101581.50;5021302;28;20045;-51
2022/08/27 02:04:35;;;;;;;10.40;3.25;;;;;;;18.29;74.26;101576.78;5021362;28;20045;-54
2022/08/27 02:07:04;;;;;;;9.82;3.45;;;;;;;18.20;74.79;101587.66;5038896;28;20099;-54
2022/08/27 02:09:32;;;;;;;10.60;2.92;;;;;;;18.18;75.38;101576.13;5035567;28;20451;-50
2022/08/27 02:12:00;;;;;;;9.27;3.35;;;;;;;18.18;75.23;101581.63;5038870;28;20107;-52
2022/08/27 02:14:28;;;;;;;8.52;2.72;;;;;;;18.19;75.38;101568.69;5021046;28;20124;-54
2022/08/27 02:16:56;;;;;;;9.02;2.92;;;;;;;18.19;75.00;101572.25;5043659;28;20046;-51
2022/08/27 02:19:23;;;;;;;9.80;2.80;;;;;;;18.17;75.04;101568.16;5038956;28;20404;-51
2022/08/27 02:21:51;;;;;;;6.43;2.90;;;;;;;18.12;75.52;101569.06;5039085;28;20041;-54
2022/08/27 02:24:19;;;;;;;8.25;3.00;;;;;;;18.12;75.41;101571.81;5038554;28;20041;-50
2022/08/27 02:26:47;;;;;;;8.13;3.15;;;;;;;18.09;75.44;101578.75;5038259;28;20053;-53
2022/08/27 02:29:15;;;;;;;9.10;3.40;;;;;;;18.07;75.53;101571.91;5042587;28;20178;-54
2022/08/27 02:31:43;;;;;;;10.77;3.33;;;;;;;18.09;75.56;101569.66;5037786;28;20064;-50
2022/08/27 02:34:10;;;;;;;8.02;2.95;;;;;;;18.11;75.50;101570.16;5038179;28;20053;-49
2022/08/27 02:36:38;;;;;;;6.47;2.80;;;;;;;18.08;75.30;101568.00;5039654;28;20048;-54
2022/08/27 02:39:06;;;;;;;9.13;3.20;;;;;;;18.02;75.95;101566.47;5017583;28;20099;-53
2022/08/27 02:41:35;;;;;;;9.10;3.10;;;;;;;17.98;75.85;101560.72;5035086;28;20041;-54
2022/08/27 02:44:04;;;;;;;7.28;3.05;;;;;;;17.91;76.40;101559.47;5034106;28;20053;-54
2022/08/27 02:46:38;;;;;;;8.77;3.30;;;;;;;17.90;76.37;101555.09;5034630;28;20050;-52
2022/08/27 02:49:06;;;;;;;8.25;3.00;;;;;;;17.92;76.77;101552.81;5033641;28;20041;-50
2022/08/27 02:51:34;;;;;;;8.95;3.00;;;;;;;17.97;76.51;101553.59;5034662;28;20037;-50
2022/08/27 02:54:02;;;;;;;6.20;2.78;;;;;;;18.02;76.21;101563.72;5015952;28;20052;-47
2022/08/27 02:56:30;;;;;;;6.32;3.20;;;;;;;18.01;76.14;101564.81;5022171;28;20051;-54
2022/08/27 02:58:58;;;;;;;10.50;3.53;;;;;;;18.02;76.17;101563.72;5033497;28;20064;-52
2022/08/27 03:01:26;;;;;;;10.50;3.13;;;;;;;17.98;76.43;101562.66;5034723;28;20424;-52
2022/08/27 03:03:55;;;;;;;8.55;3.08;;;;;;;17.96;76.42;101559.38;5034626;28;20052;-46
2022/08/27 03:06:22;;;;;;;7.00;2.75;;;;;;;17.97;76.47;101563.81;5035439;28;20045;-51
2022/08/27 03:08:50;;;;;;;8.73;3.22;;;;;;;17.96;76.54;101562.16;5034719;28;20408;-53
2022/08/27 03:11:22;;;;;;;8.70;3.20;;;;;;;17.94;76.61;101556.09;5034408;28;20041;-52
2022/08/27 03:13:50;;;;;;;8.23;3.28;;;;;;;17.89;77.07;101562.53;5016443;28;20037;-51
2022/08/27 03:16:18;;;;;;;9.00;3.22;;;;;;;17.86;77.25;101563.13;5041279;28;20103;-52
2022/08/27 03:18:46;;;;;;;9.10;3.25;;;;;;;17.82;77.49;101557.41;5017869;28;20049;-51
2022/08/27 03:21:19;;;;;;;6.85;2.70;;;;;;;17.81;77.45;101558.50;5012687;28;20049;-51
2022/08/27 03:23:47;;;;;;;8.25;3.17;;;;;;;17.81;77.46;101555.75;5010915;28;20041;-50
2022/08/27 03:26:16;;;;;;;10.65;3.08;;;;;;;17.79;77.70;101555.19;5018025;28;20041;-48
2022/08/27 03:28:44;;;;;;;6.95;2.90;;;;;;;17.80;77.68;101562.41;5016820;28;20041;-50
2022/08/27 03:31:25;;;;;;;7.25;3.47;;;;;;;17.79;77.44;101557.94;5032958;28;20045;-51
2022/08/27 03:33:59;;;;;;;7.63;3.05;;;;;;;17.79;77.63;101562.66;5034141;28;20045;-53
2022/08/27 03:36:29;;;;;;;12.40;3.55;;;;;;;17.75;77.74;101567.97;5018111;28;20041;-50
2022/08/27 03:38:57;;;;;;;11.50;3.33;;;;;;;17.75;77.87;101561.59;5016255;28;20075;-50
2022/08/27 03:41:25;;;;;;;7.60;3.22;;;;;;;17.75;77.85;101565.19;5032894;28;20412;-50
2022/08/27 03:44:12;;;;;;;11.10;3.80;;;;;;;17.74;77.95;101566.31;5029966;28;20110;-51
2022/08/27 03:46:49;;;;;;;11.60;3.50;;;;;;;17.71;78.22;101566.91;5036421;28;20129;-50
2022/08/27 03:49:19;;;;;;;7.18;3.17;;;;;;;17.71;78.35;101568.84;4982186;28;20469;-50
2022/08/27 03:51:50;;;;;;;8.70;3.45;;;;;;;17.70;78.37;101568.00;5014193;28;20065;-52
2022/08/27 03:54:17;;;;;;;8.10;3.38;;;;;;;17.73;78.54;101570.19;5033433;28;20038;-52
2022/08/27 03:56:45;;;;;;;9.65;3.20;;;;;;;17.77;78.15;101565.69;5026496;28;20049;-51
2022/08/27 03:59:14;;;;;;;11.55;3.58;;;;;;;17.79;78.01;101568.97;5012405;28;20420;-53
2022/08/27 04:01:43;;;;;;;9.90;3.20;;;;;;;17.80;78.17;101565.16;4999930;28;20042;-51
2022/08/27 04:04:11;;;;;;;6.70;3.20;;;;;;;17.81;78.17;101566.78;5011704;28;20056;-50
2022/08/27 04:06:40;;;;;;;10.10;3.40;;;;;;;17.81;77.94;101571.47;5013346;28;20812;-51
2022/08/27 04:09:07;;;;;;;8.90;3.55;;;;;;;17.79;78.08;101568.97;5012328;28;20493;-52
2022/08/27 04:11:36;;;;;;;8.52;3.65;;;;;;;17.77;78.44;101565.69;5013541;28;20042;-50
2022/08/27 04:14:05;;;;;;;7.95;3.40;;;;;;;17.73;78.62;101563.88;5025085;28;20492;-50
2022/08/27 04:16:54;;;;;;;8.40;3.25;;;;;;;17.72;78.90;101562.19;5014209;28;20052;-52
2022/08/27 04:19:23;;;;;;;8.40;3.60;;;;;;;17.72;78.97;101567.72;5013273;28;20053;-50
2022/08/27 04:22:02;;;;;;;9.50;3.60;;;;;;;17.67;79.27;101566.66;5013181;28;20049;-50
2022/08/27 04:24:35;;;;;;;7.13;3.33;;;;;;;17.66;79.54;101561.47;5010901;28;20046;-55
2022/08/27 04:27:05;;;;;;;9.65;3.53;;;;;;;17.64;79.65;101569.22;5013174;28;20046;-49
2022/08/27 04:29:33;;;;;;;7.30;3.30;;;;;;;17.60;80.14;101565.41;5013522;28;20087;-48
2022/08/27 04:32:02;;;;;;;9.52;3.33;;;;;;;17.59;80.39;101566.53;5013034;28;20038;-49
2022/08/27 04:34:33;;;;;;;7.47;3.30;;;;;;;17.57;80.51;101564.06;5009181;28;20042;-51
2022/08/27 04:37:02;;;;;;;7.45;3.22;;;;;;;17.57;80.89;101563.25;5020153;28;20079;-52
2022/08/27 04:39:30;;;;;;;9.02;3.50;;;;;;;17.56;81.17;101572.66;5012136;28;20042;-49
2022/08/27 04:41:59;;;;;;;9.48;3.70;;;;;;;17.53;81.24;101573.22;4995682;28;20452;-47
2022/08/27 04:44:31;;;;;;;10.55;3.70;;;;;;;17.52;81.38;101574.34;5011700;28;20106;-47
2022/08/27 04:47:00;;;;;;;10.38;3.83;;;;;;;17.53;81.53;101573.22;5015013;28;20042;-50
2022/08/27 04:49:28;;;;;;;9.20;3.30;;;;;;;17.56;81.64;101580.91;5021800;28;20136;-48
2022/08/27 04:51:58;;;;;;;9.13;3.45;;;;;;;17.57;81.52;101577.03;5015332;28;20042;-47
2022/08/27 04:54:26;;;;;;;14.40;3.90;;;;;;;17.55;81.77;101576.50;5013028;28;20045;-46
2022/08/27 04:57:01;;;;;;;10.05;3.42;;;;;;;17.54;81.59;101577.63;5013485;28;20042;-53
2022/08/27 04:59:30;;;;;;;11.73;3.75;;;;;;;17.51;82.04;101583.72;5009808;28;20062;-50
2022/08/27 05:01:58;;;;;;;8.40;3.67;;;;;;;17.46;82.24;101577.16;5021355;28;20094;-50
2022/08/27 05:04:26;;;;;;;7.85;3.50;;;;;;;17.51;82.54;101580.94;5014107;28;20109;-54
2022/08/27 05:06:53;;;;;;;8.20;3.80;;;;;;;17.50;82.14;101587.59;5011437;28;20054;-51
2022/08/27 05:09:21;;;;;;;8.13;3.28;;;;;;;17.48;82.21;101578.78;5009565;28;20100;-50
2022/08/27 05:11:54;;;;;;;10.60;3.90;;;;;;;17.45;82.39;101581.03;5012616;28;20042;-51
2022/08/27 05:14:28;;;;;;;6.97;3.13;;;;;;;17.49;82.46;101584.03;5014253;28;20558;-53
2022/08/27 05:16:57;;;;;;;9.02;3.47;;;;;;;17.54;81.98;101588.66;5003684;28;20046;-50
2022/08/27 05:19:25;;;;;;;7.88;3.47;;;;;;;17.59;81.75;101583.06;5011037;28;20038;-52
2022/08/27 05:21:53;;;;;;;8.55;3.28;;;;;;;17.58;81.50;101592.44;5011586;28;20570;-52
2022/08/27 05:24:22;;;;;;;6.22;3.20;;;;;;;17.55;81.89;101595.78;5012895;28;20033;-49
2022/08/27 05:26:51;;;;;;;7.57;3.42;;;;;;;17.55;82.11;101590.28;5009805;28;20091;-52
2022/08/27 05:29:19;;;;;;;8.77;3.40;;;;;;;17.56;81.87;101595.50;5012257;28;20034;-49
2022/08/27 05:31:47;;;;;;;11.20;3.65;;;;;;;17.56;82.15;101594.69;5012231;28;20049;-53
2022/08/27 05:34:15;;;;;;;8.20;3.40;;;;;;;17.56;82.19;101600.19;5010835;28;20096;-54
2022/08/27 05:36:53;;;;;;;7.75;3.53;;;;;;;17.54;82.36;101592.22;5009764;28;20042;-53
2022/08/27 05:39:21;;;;;;;8.18;3.50;;;;;;;17.52;82.68;101590.88;5010937;28;20045;-50
2022/08/27 05:41:51;;;;;;;8.60;3.63;;;;;;;17.54;82.59;101591.41;5012372;28;20073;-47
2022/08/27 05:44:18;;;;;;;10.02;3.50;;;;;;;17.54;82.65;101591.41;5013249;28;20052;-52
2022/08/27 05:47:06;;;;;;;9.82;3.70;;;;;;;17.55;82.64;101590.28;5010973;28;20052;-48
2022/08/27 05:49:34;;;;;;;9.95;3.28;;;;;;;17.53;82.88;101598.00;5010753;28;20041;-46
2022/08/27 05:52:02;;;;;;;8.77;3.35;;;;;;;17.56;82.91;101595.50;5011453;28;20057;-49
2022/08/27 05:54:30;;;;;;;8.10;3.42;;;;;;;17.59;82.62;101589.38;5011607;28;20038;-49
2022/08/27 05:56:57;;;;;;;8.48;3.45;;;;;;;17.63;82.47;101592.34;5023972;28;20065;-50
2022/08/27 06:02:11;;;;;;;;;;;;;;;17.60;82.08;101590.19;5008018;28;20050;-50
2022/08/27 06:04:38;;;;;;;8.10;3.55;;;;;;;17.57;82.00;101593.56;4993363;28;19928;-48
2022/08/27 06:07:09;;;;;;;6.75;3.22;;;;;;;17.57;82.01;101593.56;5010927;28;20045;-48
2022/08/27 06:09:38;;;;;;;8.65;3.67;;;;;;;17.56;82.23;101586.41;4994114;28;20100;-51
2022/08/27 06:12:08;;;;;;;10.43;4.05;;;;;;;17.59;81.93;101599.59;4994911;28;20402;-51
2022/08/27 06:14:37;;;;;;;10.07;3.90;;;;;;;17.56;82.01;101597.44;5006256;28;20042;-50
2022/08/27 06:17:05;;;;;;;6.57;3.15;;;;;;;17.55;82.16;101601.28;5014120;28;20050;-52
2022/08/27 06:19:35;;;;;;;9.02;3.70;;;;;;;17.57;81.94;101597.13;5014397;28;20038;-50
2022/08/27 06:22:03;;;;;;;10.70;3.50;;;;;;;17.61;81.87;101600.94;5015434;28;20122;-49
2022/08/27 06:24:38;;;;;;;11.82;3.90;;;;;;;17.63;81.53;101597.88;5015723;28;20030;-52
2022/08/27 06:27:10;;;;;;;11.88;4.00;;;;;;;17.62;81.56;101604.50;5015472;28;20457;-51
2022/08/27 06:29:39;;;;;;;11.57;3.80;;;;;;;17.62;81.89;101602.56;4980930;28;20092;-52
2022/08/27 06:32:08;;;;;;;7.60;3.40;;;;;;;17.57;82.20;101604.59;5014179;28;20042;-52
2022/08/27 06:34:36;;;;;;;9.95;3.45;;;;;;;17.59;82.54;101602.34;5015267;28;20034;-49
2022/08/27 06:37:06;;;;;;;9.00;3.42;;;;;;;17.63;82.91;101606.13;5014979;28;20046;-52
2022/08/27 06:39:35;;;;;;;8.95;3.60;;;;;;;17.66;82.64;101603.63;4997065;28;20052;-50
2022/08/27 06:42:05;;;;;;;9.18;3.78;;;;;;;17.71;82.60;101605.50;5013536;28;20046;-51
2022/08/27 06:44:33;;;;;;;9.43;3.58;;;;;;;17.80;81.98;101614.78;5013934;28;20042;-48
2022/08/27 06:47:02;;;;;;;8.20;3.63;;;;;;;17.82;82.01;101604.28;5016441;28;20144;-51
2022/08/27 06:49:30;;;;;;;11.57;3.85;;;;;;;17.84;82.03;101610.28;5014929;28;20392;-48
2022/08/27 06:51:58;;;;;;;11.73;3.95;;;;;;;17.86;81.86;101608.03;5010095;28;20038;-50
2022/08/27 06:54:26;;;;;;;10.23;3.88;;;;;;;17.85;81.03;101605.59;5010646;28;20049;-50
2022/08/27 06:56:59;;;;;;;9.82;3.65;;;;;;;17.83;81.02;101614.16;5014613;28;20041;-50
2022/08/27 06:59:26;;;;;;;11.25;4.05;;;;;;;17.82;80.62;101608.94;5022745;28;20056;-49
2022/08/27 07:01:54;;;;;;;7.07;3.20;;;;;;;17.86;80.87;101618.25;5032740;28;20114;-50
2022/08/27 07:04:24;;;;;;;8.68;3.88;;;;;;;17.91;80.78;101607.16;5005800;28;20071;-51
2022/08/27 07:07:00;;;;;;;9.88;3.88;;;;;;;17.86;79.76;101602.53;5016849;28;20033;-47
2022/08/27 07:09:30;;;;;;;7.75;3.53;;;;;;;17.85;80.21;101617.44;5034067;28;20062;-47
2022/08/27 07:11:59;;;;;;;13.18;4.25;;;;;;;17.83;79.27;101599.56;5030886;28;20053;-51
2022/08/27 07:14:27;;;;;;;10.85;4.10;;;;;;;17.82;78.67;101604.28;5017564;28;20033;-46
2022/08/27 07:16:54;;;;;;;10.05;4.00;;;;;;;17.83;78.38;101611.41;5036521;28;20045;-49
2022/08/27 07:19:22;;;;;;;8.45;4.00;;;;;;;17.76;78.03;101610.13;5017199;28;20041;-50
2022/08/27 07:21:50;;;;;;;7.70;3.90;;;;;;;17.78;78.35;101611.47;5015741;28;20099;-48
2022/08/27 07:24:18;;;;;;;10.52;3.75;;;;;;;17.85;78.28;101617.44;5020481;28;20447;-49
2022/08/27 07:26:46;;;;;;;13.15;4.38;;;;;;;17.78;77.59;101614.22;5029658;28;20098;-48
2022/08/27 07:29:14;;;;;;;9.02;3.90;;;;;;;17.80;78.03;101619.44;5035461;28;20423;-49
2022/08/27 07:31:42;;;;;;;9.15;3.80;;;;;;;17.78;77.93;101619.72;5034175;28;20049;-46
2022/08/27 07:34:10;;;;;;;8.82;3.85;;;;;;;17.83;78.17;101625.19;5033780;28;20064;-46
2022/08/27 07:36:38;;;;;;;7.22;3.63;;;;;;;17.85;78.00;101625.72;5003505;28;20045;-46
2022/08/27 07:39:09;;;;;;;10.52;4.03;;;;;;;17.87;78.32;101620.72;5028792;28;20046;-47
2022/08/27 07:44:23;;;;;;;10.43;4.43;;;;;;;17.90;77.60;101619.31;5016247;28;20042;-48
2022/08/27 07:44:27;;;;;;;19.13;5.70;;;;;;;17.95;77.76;101615.66;5033191;28;20049;-46
2022/08/27 07:47:01;;;;;;;9.70;3.72;;;;;;;17.99;77.05;101619.44;5023167;28;20511;-46
2022/08/27 07:49:30;;;;;;;14.38;4.68;;;;;;;18.01;77.33;101619.97;5015964;28;20527;-46
2022/08/27 07:51:58;;;;;;;9.32;4.00;;;;;;;18.04;77.17;101620.22;5034076;28;20041;-47
2022/08/27 07:54:28;;;;;;;10.10;3.95;;;;;;;18.11;77.21;101625.31;5017708;28;20493;-50
2022/08/27 07:56:56;;;;;;;27.85;7.38;;;;;;;18.20;77.02;101617.19;5034687;28;20092;-52
2022/08/27 07:59:25;;;;;;;9.30;4.15;;;;;;;18.24;74.67;101623.75;5033017;28;20083;-48
2022/08/27 08:01:56;;;;;;;8.13;3.20;;;;;;;18.21;70.80;101625.19;5033451;28;20073;-47
2022/08/27 08:04:25;;;;;;;10.35;3.47;;;;;;;18.25;71.00;101626.19;5033648;28;20056;-47
2022/08/27 08:06:54;;;;;;;5.40;2.83;;;;;;;18.26;68.41;101633.38;5015308;28;20060;-50
2022/08/27 08:09:23;;;;;;;7.28;2.50;;;;;;;18.28;68.73;101625.63;5032666;28;20052;-49
2022/08/27 08:11:51;;;;;;;9.15;3.08;;;;;;;18.39;67.98;101625.44;5033202;28;20049;-51
2022/08/27 08:14:20;;;;;;;7.53;2.72;;;;;;;18.43;67.47;101624.56;5033608;28;20507;-49
2022/08/27 08:16:48;;;;;;;5.03;2.63;;;;;;;18.48;67.56;101623.66;5032726;28;20041;-49
2022/08/27 08:19:16;;;;;;;10.30;3.67;;;;;;;18.52;67.97;101630.22;5033407;28;20048;-50
2022/08/27 08:21:44;;;;;;;10.20;3.20;;;;;;;18.50;66.18;101626.94;4999295;28;20041;-54
2022/08/27 08:24:11;;;;;;;7.72;2.70;;;;;;;18.49;66.24;101628.84;5001247;28;20042;-51
2022/08/27 08:26:40;;;;;;;7.07;2.75;;;;;;;18.52;66.30;101630.22;5033056;28;20497;-55
2022/08/27 08:29:08;;;;;;;8.23;2.63;;;;;;;18.52;66.52;101630.22;5015605;28;20408;-54
2022/08/27 08:31:45;;;;;;;7.05;2.88;;;;;;;18.59;65.86;101630.66;5033185;28;20503;-52
2022/08/27 08:34:17;;;;;;;9.63;2.63;;;;;;;18.63;65.93;101631.66;5032043;28;20041;-50
2022/08/27 08:36:48;;;;;;;6.97;3.00;;;;;;;18.62;65.30;101635.56;5032548;28;20649;-51
2022/08/27 08:39:22;;;;;;;8.38;2.95;;;;;;;18.63;65.17;101626.13;5015384;28;20115;-56
2022/08/27 08:41:59;;;;;;;7.07;2.78;;;;;;;18.65;64.50;101634.94;5015451;28;20099;-53
2022/08/27 08:44:35;;;;;;;7.93;2.92;;;;;;;18.64;65.38;101644.34;5015243;28;20161;-53
2022/08/27 08:47:15;;;;;;;12.27;2.90;;;;;;;18.68;64.25;101644.56;5033096;28;20045;-51
2022/08/27 08:49:52;;;;;;;8.60;2.97;;;;;;;18.67;64.60;101638.22;5015336;28;20500;-54
2022/08/27 08:52:38;;;;;;;6.80;3.05;;;;;;;18.69;65.15;101641.50;5032727;28;20535;-54
2022/08/27 08:55:24;;;;;;;8.70;3.25;;;;;;;18.78;65.65;101627.81;5030095;28;20107;-54
2022/08/27 08:58:27;;;;;;;6.32;2.75;;;;;;;18.90;64.93;101625.38;5032870;28;20049;-52
2022/08/27 09:01:02;;;;;;;7.95;3.03;;;;;;;19.00;63.09;101631.84;5010822;28;20048;-53
2022/08/27 09:03:34;;;;;;;7.35;2.70;;;;;;;19.08;63.38;101637.50;5020365;28;20164;-51
2022/08/27 09:06:06;;;;;;;10.70;2.85;;;;;;;19.14;62.95;101630.72;5001911;28;20038;-51
2022/08/27 09:08:40;;;;;;;9.05;2.85;;;;;;;19.19;61.49;101627.06;5012070;28;20530;-52
2022/08/27 09:11:20;;;;;;;6.20;2.65;;;;;;;19.24;62.00;101632.50;5013498;28;20042;-53
2022/08/27 09:13:59;;;;;;;5.60;2.60;;;;;;;19.33;61.68;101651.94;5015488;28;20041;-55
2022/08/27 09:16:27;;;;;;;6.95;2.90;;;;;;;19.27;61.82;101636.59;5023758;28;20073;-52
2022/08/27 09:18:55;;;;;;;8.55;3.03;;;;;;;19.26;61.87;101644.03;4999745;28;20046;-51
2022/08/27 09:21:48;;;;;;;7.47;2.78;;;;;;;19.22;61.84;101648.56;5014069;28;20381;-52
2022/08/27 09:24:39;;;;;;;7.07;2.90;;;;;;;19.22;62.38;101651.31;5011091;28;20073;-50
2022/08/27 09:27:11;;;;;;;9.07;3.75;;;;;;;19.19;62.23;101651.09;4997402;28;20104;-54
2022/08/27 09:29:49;;;;;;;9.15;2.60;;;;;;;19.14;62.40;101640.97;4993345;28;20145;-55
2022/08/27 09:32:26;;;;;;;5.30;2.75;;;;;;;19.19;62.53;101643.63;4977960;28;20042;-54
2022/08/27 09:34:58;;;;;;;7.85;2.55;;;;;;;19.27;62.01;101642.13;4994691;28;20041;-51
2022/08/27 09:37:30;;;;;;;7.25;2.70;;;;;;;19.34;61.30;101639.75;5013179;28;20095;-53
2022/08/27 09:40:10;;;;;;;7.07;2.53;;;;;;;19.36;60.99;101643.00;4975012;28;20100;-52
2022/08/27 09:42:52;;;;;;;6.90;2.50;;;;;;;19.39;60.89;101647.94;5011217;28;20068;-52
2022/08/27 09:45:29;;;;;;;8.18;2.80;;;;;;;19.39;60.37;101644.38;5019559;28;20032;-52
2022/08/27 09:48:20;;;;;;;9.52;3.45;;;;;;;19.34;60.21;101642.53;5003042;28;20068;-55
2022/08/27 09:50:53;;;;;;;7.38;2.40;;;;;;;19.33;60.74;101643.63;4996863;28;20128;-53
2022/08/27 09:53:43;;;;;;;7.00;2.78;;;;;;;19.32;60.68;101636.50;4998425;28;20045;-54
2022/08/27 09:56:32;;;;;;;9.35;2.72;;;;;;;19.33;61.26;101633.41;5005005;28;20107;-53
2022/08/27 09:59:09;;;;;;;8.70;2.75;;;;;;;19.28;60.05;101644.56;4998339;28;20416;-51
2022/08/27 10:01:50;;;;;;;8.73;3.00;;;;;;;19.22;60.17;101653.25;4997079;28;20041;-50
2022/08/27 10:04:44;;;;;;;8.43;3.28;;;;;;;19.22;60.84;101644.97;5015846;28;20042;-53
2022/08/27 10:07:43;;;;;;;6.63;2.53;;;;;;;19.25;60.66;101636.06;5008002;28;20405;-56
2022/08/27 10:10:24;;;;;;;7.38;2.70;;;;;;;19.33;60.20;101636.16;5016056;28;20053;-56
2022/08/27 10:13:05;;;;;;;10.32;2.75;;;;;;;19.44;59.20;101638.75;4997396;28;20061;-54
2022/08/27 10:15:44;;;;;;;6.93;2.70;;;;;;;19.50;58.30;101624.47;5009405;28;20037;-53
2022/08/27 10:18:47;;;;;;;6.75;2.78;;;;;;;19.64;58.26;101629.19;5013469;28;20308;-56
2022/08/27 10:21:23;;;;;;;6.03;2.40;;;;;;;19.73;57.71;101632.91;5010864;28;20050;-53
2022/08/27 10:24:18;;;;;;;6.80;2.72;;;;;;;19.82;57.95;101624.66;4998025;28;20072;-55
2022/08/27 10:27:04;;;;;;;7.95;2.47;;;;;;;19.93;56.65;101631.59;5010412;28;20077;-51
2022/08/27 10:29:56;;;;;;;6.93;2.30;;;;;;;19.96;56.47;101623.53;5010781;28;20042;-53
2022/08/27 10:33:01;;;;;;;8.65;2.80;;;;;;;20.03;56.50;101633.31;5015071;28;20476;-55
2022/08/27 10:36:00;;;;;;;5.60;2.40;;;;;;;20.05;56.23;101636.59;5012621;28;20044;-54
2022/08/27 10:38:40;;;;;;;6.78;2.65;;;;;;;19.92;55.83;101627.22;4989783;28;20444;-51
2022/08/27 10:41:29;;;;;;;6.53;2.50;;;;;;;19.85;56.36;101624.06;5008753;28;20045;-52
2022/08/27 10:44:11;;;;;;;8.43;2.30;;;;;;;19.84;56.35;101625.97;4997037;28;20108;-51
2022/08/27 10:46:40;;;;;;;8.02;2.45;;;;;;;19.84;56.43;101617.69;5017509;28;20042;-52
2022/08/27 10:49:23;;;;;;;9.88;2.88;;;;;;;19.94;56.83;101617.47;5014138;28;20052;-57
2022/08/27 10:52:17;;;;;;;4.55;2.10;;;;;;;20.00;56.80;101630.03;5014848;28;20063;-55
2022/08/27 10:55:03;;;;;;;6.53;2.28;;;;;;;20.07;55.29;101628.81;5009362;28;20057;-50
2022/08/27 10:57:39;;;;;;;6.93;2.55;;;;;;;19.92;55.16;101628.03;4997900;28;20044;-50
2022/08/27 11:00:30;;;;;;;4.35;2.08;;;;;;;19.92;55.87;101625.25;5009708;28;20108;-49
2022/08/27 11:03:09;;;;;;;7.20;2.50;;;;;;;20.02;55.49;101615.09;5013920;28;20042;-50
2022/08/27 11:05:46;;;;;;;3.15;1.83;;;;;;;20.11;55.38;101621.53;4982535;28;20046;-51
2022/08/27 11:08:38;;;;;;;6.70;2.50;;;;;;;20.22;54.94;101617.34;5013852;28;20049;-51
2022/08/27 11:11:10;;;;;;;5.07;2.40;;;;;;;20.25;55.12;101613.97;5000341;28;20497;-52
2022/08/27 11:13:58;;;;;;;9.38;2.78;;;;;;;20.21;55.09;101626.81;5013006;28;20038;-52
2022/08/27 11:16:44;;;;;;;5.75;2.30;;;;;;;20.14;55.41;101613.41;5014732;28;20048;-50
2022/08/27 11:19:22;;;;;;;5.57;2.00;;;;;;;20.15;55.34;101622.50;5011379;28;20496;-51
2022/08/27 11:22:20;;;;;;;4.53;2.15;;;;;;;20.12;54.96;101623.16;5013306;28;20046;-50
2022/08/27 11:25:21;;;;;;;5.45;2.15;;;;;;;20.12;55.56;101614.84;5016085;28;20045;-53
2022/08/27 11:27:50;;;;;;;5.75;2.30;;;;;;;20.15;54.99;101619.75;5013450;28;20056;-52
2022/08/27 11:30:37;;;;;;;5.95;2.63;;;;;;;20.15;54.66;101614.22;5014471;28;20050;-52
2022/08/27 11:33:11;;;;;;;5.82;2.25;;;;;;;20.17;54.85;101606.41;5002059;28;20111;-51
2022/08/27 11:36:14;;;;;;;5.25;2.33;;;;;;;20.26;54.07;101612.03;5014185;28;20045;-51
2022/08/27 11:39:00;;;;;;;7.15;2.40;;;;;;;20.34;54.41;101603.78;5034273;28;20046;-51
2022/08/27 11:41:39;;;;;;;5.93;2.13;;;;;;;20.31;54.42;101609.13;5002022;28;20095;-48
2022/08/27 11:44:13;;;;;;;5.25;1.90;;;;;;;20.33;54.52;101599.38;5014341;28;20523;-51
2022/08/27 11:46:47;;;;;;;5.30;2.30;;;;;;;20.35;55.11;101607.38;5012880;28;20049;-51
2022/08/27 11:49:34;;;;;;;6.40;2.17;;;;;;;20.38;55.29;101607.56;5014275;28;20049;-50
2022/08/27 11:52:06;;;;;;;9.55;2.13;;;;;;;20.41;54.88;101614.41;5013046;28;20037;-54
2022/08/27 11:54:50;;;;;;;5.85;2.20;;;;;;;20.46;54.61;101610.69;5012801;28;20099;-51